sensor_id;sensor_type;location;lat;lon;timestamp;temperature;humidity
11818;DHT22;5966;52.402;5.322;2022-11-18T00:00:00;9.10;99.90
11818;DHT22;5966;52.402;5.322;2022-11-18T00:02:28;9.10;99.90
11818;DHT22;5966;52.402;5.322;2022-11-18T00:04:56;9.10;99.90
11818;DHT22;5966;52.402;5.322;2022-11-18T00:07:26;9.10;99.90
11818;DHT22;5966;52.402;5.322;2022-11-18T00:09:55;9.10;99.90
11818;DHT22;5966;52.402;5.322;2022-11-18T00:12:22;9.10;99.90
11818;DHT22;5966;52.402;5.322;2022-11-18T00:15:08;9.10;99.90
11818;DHT22;5966;52.402;5.322;2022-11-18T00:17:36;9.00;99.90
11818;DHT22;5966;52.402;5.322;2022-11-18T00:20:04;9.10;99.90
11818;DHT22;5966;52.402;5.322;2022-11-18T00:22:33;9.00;99.90
11818;DHT22;5966;52.402;5.322;2022-11-18T00:25:01;9.00;99.90
11818;DHT22;5966;52.402;5.322;2022-11-18T00:27:29;9.00;99.90
11818;DHT22;5966;52.402;5.322;2022-11-18T00:29:57;9.00;99.90
11818;DHT22;5966;52.402;5.322;2022-11-18T00:32:25;9.00;99.90
11818;DHT22;5966;52.402;5.322;2022-11-18T00:34:53;9.00;99.90
11818;DHT22;5966;52.402;5.322;2022-11-18T00:37:21;9.00;99.90
11818;DHT22;5966;52.402;5.322;2022-11-18T00:39:50;8.90;99.90
11818;DHT22;5966;52.402;5.322;2022-11-18T00:42:18;8.90;99.90
11818;DHT22;5966;52.402;5.322;2022-11-18T00:45:04;8.90;99.90
11818;DHT22;5966;52.402;5.322;2022-11-18T00:47:32;8.90;99.90
11818;DHT22;5966;52.402;5.322;2022-11-18T00:50:00;8.90;99.90
11818;DHT22;5966;52.402;5.322;2022-11-18T00:52:28;8.90;99.90
11818;DHT22;5966;52.402;5.322;2022-11-18T00:54:57;8.80;99.90
11818;DHT22;5966;52.402;5.322;2022-11-18T00:57:25;8.80;99.90
11818;DHT22;5966;52.402;5.322;2022-11-18T00:59:53;8.80;99.90
11818;DHT22;5966;52.402;5.322;2022-11-18T01:02:21;8.80;99.90
11818;DHT22;5966;52.402;5.322;2022-11-18T01:04:49;8.80;99.90
11818;DHT22;5966;52.402;5.322;2022-11-18T01:07:17;8.80;99.90
11818;DHT22;5966;52.402;5.322;2022-11-18T01:09:45;8.80;99.90
11818;DHT22;5966;52.402;5.322;2022-11-18T01:12:14;8.70;99.90
11818;DHT22;5966;52.402;5.322;2022-11-18T01:15:00;8.70;99.90
11818;DHT22;5966;52.402;5.322;2022-11-18T01:17:29;8.70;99.90
11818;DHT22;5966;52.402;5.322;2022-11-18T01:19:57;8.70;99.90
11818;DHT22;5966;52.402;5.322;2022-11-18T01:22:25;8.60;99.90
11818;DHT22;5966;52.402;5.322;2022-11-18T01:24:53;8.60;99.90
11818;DHT22;5966;52.402;5.322;2022-11-18T01:27:22;8.70;99.90
11818;DHT22;5966;52.402;5.322;2022-11-18T01:29:50;8.60;99.90
11818;DHT22;5966;52.402;5.322;2022-11-18T01:32:18;8.60;99.90
11818;DHT22;5966;52.402;5.322;2022-11-18T01:34:51;8.60;99.90
11818;DHT22;5966;52.402;5.322;2022-11-18T01:37:19;8.60;99.90
11818;DHT22;5966;52.402;5.322;2022-11-18T01:39:47;8.70;99.90
11818;DHT22;5966;52.402;5.322;2022-11-18T01:42:15;8.60;99.90
11818;DHT22;5966;52.402;5.322;2022-11-18T01:47:43;8.60;99.90
11818;DHT22;5966;52.402;5.322;2022-11-18T01:50:12;8.60;99.90
11818;DHT22;5966;52.402;5.322;2022-11-18T01:52:42;8.60;99.90
11818;DHT22;5966;52.402;5.322;2022-11-18T01:55:20;8.60;99.90
11818;DHT22;5966;52.402;5.322;2022-11-18T01:57:54;8.50;99.90
11818;DHT22;5966;52.402;5.322;2022-11-18T02:00:26;8.60;99.90
11818;DHT22;5966;52.402;5.322;2022-11-18T02:02:54;8.60;99.90
11818;DHT22;5966;52.402;5.322;2022-11-18T02:05:23;8.60;99.90
11818;DHT22;5966;52.402;5.322;2022-11-18T02:07:52;8.60;99.90
11818;DHT22;5966;52.402;5.322;2022-11-18T02:10:22;8.60;99.90
11818;DHT22;5966;52.402;5.322;2022-11-18T02:12:51;8.60;99.90
11818;DHT22;5966;52.402;5.322;2022-11-18T02:15:27;8.60;99.90
11818;DHT22;5966;52.402;5.322;2022-11-18T02:18:05;8.50;99.90
11818;DHT22;5966;52.402;5.322;2022-11-18T02:20:38;8.50;99.90
11818;DHT22;5966;52.402;5.322;2022-11-18T02:26:36;8.50;99.90
11818;DHT22;5966;52.402;5.322;2022-11-18T02:29:13;8.50;99.90
11818;DHT22;5966;52.402;5.322;2022-11-18T02:31:47;8.60;99.90
11818;DHT22;5966;52.402;5.322;2022-11-18T02:34:23;8.60;99.90
11818;DHT22;5966;52.402;5.322;2022-11-18T02:36:57;8.60;99.90
11818;DHT22;5966;52.402;5.322;2022-11-18T02:39:29;8.60;99.90
11818;DHT22;5966;52.402;5.322;2022-11-18T02:42:00;8.50;99.90
11818;DHT22;5966;52.402;5.322;2022-11-18T02:44:31;8.50;99.90
11818;DHT22;5966;52.402;5.322;2022-11-18T02:47:02;8.50;99.90
11818;DHT22;5966;52.402;5.322;2022-11-18T02:49:36;8.50;99.90
11818;DHT22;5966;52.402;5.322;2022-11-18T02:52:05;8.50;99.90
11818;DHT22;5966;52.402;5.322;2022-11-18T02:54:37;8.50;99.90
11818;DHT22;5966;52.402;5.322;2022-11-18T02:57:07;8.50;99.90
11818;DHT22;5966;52.402;5.322;2022-11-18T02:59:36;8.50;99.90
11818;DHT22;5966;52.402;5.322;2022-11-18T03:02:05;8.50;99.90
11818;DHT22;5966;52.402;5.322;2022-11-18T03:04:33;8.50;99.90
11818;DHT22;5966;52.402;5.322;2022-11-18T03:07:05;8.40;99.90
11818;DHT22;5966;52.402;5.322;2022-11-18T03:09:38;8.40;99.90
11818;DHT22;5966;52.402;5.322;2022-11-18T03:12:16;8.40;99.90
11818;DHT22;5966;52.402;5.322;2022-11-18T03:14:51;8.40;99.90
11818;DHT22;5966;52.402;5.322;2022-11-18T03:17:33;8.40;99.90
11818;DHT22;5966;52.402;5.322;2022-11-18T03:20:11;8.40;99.90
11818;DHT22;5966;52.402;5.322;2022-11-18T03:22:46;8.40;99.90
11818;DHT22;5966;52.402;5.322;2022-11-18T03:25:19;8.40;99.90
11818;DHT22;5966;52.402;5.322;2022-11-18T03:27:53;8.30;99.90
11818;DHT22;5966;52.402;5.322;2022-11-18T03:30:24;8.30;99.90
11818;DHT22;5966;52.402;5.322;2022-11-18T03:32:56;8.30;99.90
11818;DHT22;5966;52.402;5.322;2022-11-18T03:35:29;8.30;99.90
11818;DHT22;5966;52.402;5.322;2022-11-18T03:38:01;8.30;99.90
11818;DHT22;5966;52.402;5.322;2022-11-18T03:40:31;8.20;99.90
11818;DHT22;5966;52.402;5.322;2022-11-18T03:43:05;8.20;99.90
11818;DHT22;5966;52.402;5.322;2022-11-18T03:45:38;8.20;99.90
11818;DHT22;5966;52.402;5.322;2022-11-18T03:48:11;8.30;99.90
11818;DHT22;5966;52.402;5.322;2022-11-18T03:50:43;8.30;99.90
11818;DHT22;5966;52.402;5.322;2022-11-18T03:53:13;8.30;99.90
11818;DHT22;5966;52.402;5.322;2022-11-18T03:55:46;8.20;99.90
11818;DHT22;5966;52.402;5.322;2022-11-18T03:58:20;8.20;99.90
11818;DHT22;5966;52.402;5.322;2022-11-18T04:00:55;8.20;99.90
11818;DHT22;5966;52.402;5.322;2022-11-18T04:03:24;8.20;99.90
11818;DHT22;5966;52.402;5.322;2022-11-18T04:05:59;8.20;99.90
11818;DHT22;5966;52.402;5.322;2022-11-18T04:08:33;8.20;99.90
11818;DHT22;5966;52.402;5.322;2022-11-18T04:11:08;8.10;99.90
11818;DHT22;5966;52.402;5.322;2022-11-18T04:13:57;8.10;99.90
11818;DHT22;5966;52.402;5.322;2022-11-18T04:16:26;8.00;99.90
11818;DHT22;5966;52.402;5.322;2022-11-18T04:18:54;8.00;99.90
11818;DHT22;5966;52.402;5.322;2022-11-18T04:21:28;7.90;99.90
11818;DHT22;5966;52.402;5.322;2022-11-18T04:23:56;7.90;99.90
11818;DHT22;5966;52.402;5.322;2022-11-18T04:26:24;7.90;99.90
11818;DHT22;5966;52.402;5.322;2022-11-18T04:28:52;7.90;99.90
11818;DHT22;5966;52.402;5.322;2022-11-18T04:31:20;7.90;99.90
11818;DHT22;5966;52.402;5.322;2022-11-18T04:33:49;7.80;99.90
11818;DHT22;5966;52.402;5.322;2022-11-18T04:36:17;7.90;99.90
11818;DHT22;5966;52.402;5.322;2022-11-18T04:38:45;7.80;99.90
11818;DHT22;5966;52.402;5.322;2022-11-18T04:41:13;7.80;99.90
11818;DHT22;5966;52.402;5.322;2022-11-18T04:43:41;7.80;99.90
11818;DHT22;5966;52.402;5.322;2022-11-18T04:46:09;7.80;99.90
11818;DHT22;5966;52.402;5.322;2022-11-18T04:48:37;7.80;99.90
11818;DHT22;5966;52.402;5.322;2022-11-18T04:51:06;7.80;99.90
11818;DHT22;5966;52.402;5.322;2022-11-18T04:53:34;7.90;99.90
11818;DHT22;5966;52.402;5.322;2022-11-18T04:56:05;7.80;99.90
11818;DHT22;5966;52.402;5.322;2022-11-18T04:58:33;7.90;99.90
11818;DHT22;5966;52.402;5.322;2022-11-18T05:01:01;7.90;99.90
11818;DHT22;5966;52.402;5.322;2022-11-18T05:03:29;7.90;99.90
11818;DHT22;5966;52.402;5.322;2022-11-18T05:06:00;7.90;99.90
11818;DHT22;5966;52.402;5.322;2022-11-18T05:08:30;7.90;99.90
11818;DHT22;5966;52.402;5.322;2022-11-18T05:10:58;7.90;99.90
11818;DHT22;5966;52.402;5.322;2022-11-18T05:13:49;7.90;99.90
11818;DHT22;5966;52.402;5.322;2022-11-18T05:16:16;7.90;99.90
11818;DHT22;5966;52.402;5.322;2022-11-18T05:18:44;7.90;99.90
11818;DHT22;5966;52.402;5.322;2022-11-18T05:21:12;7.90;99.90
11818;DHT22;5966;52.402;5.322;2022-11-18T05:23:41;7.90;99.90
11818;DHT22;5966;52.402;5.322;2022-11-18T05:26:10;8.00;99.90
11818;DHT22;5966;52.402;5.322;2022-11-18T05:28:38;8.00;99.90
11818;DHT22;5966;52.402;5.322;2022-11-18T05:31:07;8.00;99.90
11818;DHT22;5966;52.402;5.322;2022-11-18T05:33:35;8.00;99.90
11818;DHT22;5966;52.402;5.322;2022-11-18T05:36:03;7.90;99.90
11818;DHT22;5966;52.402;5.322;2022-11-18T05:38:31;7.90;99.90
11818;DHT22;5966;52.402;5.322;2022-11-18T05:41:01;8.00;99.90
11818;DHT22;5966;52.402;5.322;2022-11-18T05:43:29;8.00;99.90
11818;DHT22;5966;52.402;5.322;2022-11-18T05:45:57;8.00;99.90
11818;DHT22;5966;52.402;5.322;2022-11-18T05:48:25;7.90;99.90
11818;DHT22;5966;52.402;5.322;2022-11-18T05:50:54;7.90;99.90
11818;DHT22;5966;52.402;5.322;2022-11-18T05:53:23;7.90;99.90
11818;DHT22;5966;52.402;5.322;2022-11-18T05:55:56;7.90;99.90
11818;DHT22;5966;52.402;5.322;2022-11-18T05:58:26;7.90;99.90
11818;DHT22;5966;52.402;5.322;2022-11-18T06:00:59;8.00;99.90
11818;DHT22;5966;52.402;5.322;2022-11-18T06:03:31;7.90;99.90
11818;DHT22;5966;52.402;5.322;2022-11-18T06:06:01;8.00;99.90
11818;DHT22;5966;52.402;5.322;2022-11-18T06:08:33;8.00;99.90
11818;DHT22;5966;52.402;5.322;2022-11-18T06:11:03;8.00;99.90
11818;DHT22;5966;52.402;5.322;2022-11-18T06:13:37;7.90;99.90
11818;DHT22;5966;52.402;5.322;2022-11-18T06:16:06;7.90;99.90
11818;DHT22;5966;52.402;5.322;2022-11-18T06:18:34;7.90;99.90
11818;DHT22;5966;52.402;5.322;2022-11-18T06:21:03;7.90;99.90
11818;DHT22;5966;52.402;5.322;2022-11-18T06:23:34;7.90;99.90
11818;DHT22;5966;52.402;5.322;2022-11-18T06:26:03;7.90;99.90
11818;DHT22;5966;52.402;5.322;2022-11-18T06:28:31;7.90;99.90
11818;DHT22;5966;52.402;5.322;2022-11-18T06:31:01;7.90;99.90
11818;DHT22;5966;52.402;5.322;2022-11-18T06:33:29;8.00;99.90
11818;DHT22;5966;52.402;5.322;2022-11-18T06:35:57;7.90;99.90
11818;DHT22;5966;52.402;5.322;2022-11-18T06:38:25;7.90;99.90
11818;DHT22;5966;52.402;5.322;2022-11-18T06:40:57;7.90;99.90
11818;DHT22;5966;52.402;5.322;2022-11-18T06:43:26;7.90;99.90
11818;DHT22;5966;52.402;5.322;2022-11-18T06:46:10;7.90;99.90
11818;DHT22;5966;52.402;5.322;2022-11-18T06:48:56;7.90;99.90
11818;DHT22;5966;52.402;5.322;2022-11-18T06:51:25;7.90;99.90
11818;DHT22;5966;52.402;5.322;2022-11-18T06:53:53;8.00;99.90
11818;DHT22;5966;52.402;5.322;2022-11-18T06:56:22;8.00;99.90
11818;DHT22;5966;52.402;5.322;2022-11-18T06:58:52;8.00;99.90
11818;DHT22;5966;52.402;5.322;2022-11-18T07:01:23;8.00;99.90
11818;DHT22;5966;52.402;5.322;2022-11-18T07:03:51;8.00;99.90
11818;DHT22;5966;52.402;5.322;2022-11-18T07:06:21;8.00;99.90
11818;DHT22;5966;52.402;5.322;2022-11-18T07:08:50;8.00;99.90
11818;DHT22;5966;52.402;5.322;2022-11-18T07:11:20;8.10;99.90
11818;DHT22;5966;52.402;5.322;2022-11-18T07:13:49;8.10;99.90
11818;DHT22;5966;52.402;5.322;2022-11-18T07:16:19;8.10;99.90
11818;DHT22;5966;52.402;5.322;2022-11-18T07:18:50;8.10;99.90
11818;DHT22;5966;52.402;5.322;2022-11-18T07:21:19;8.10;99.90
11818;DHT22;5966;52.402;5.322;2022-11-18T07:23:48;8.10;99.90
11818;DHT22;5966;52.402;5.322;2022-11-18T07:26:16;8.20;99.90
11818;DHT22;5966;52.402;5.322;2022-11-18T07:28:44;8.20;99.90
11818;DHT22;5966;52.402;5.322;2022-11-18T07:31:15;8.20;99.90
11818;DHT22;5966;52.402;5.322;2022-11-18T07:33:44;8.20;99.90
11818;DHT22;5966;52.402;5.322;2022-11-18T07:36:16;8.20;99.90
11818;DHT22;5966;52.402;5.322;2022-11-18T07:38:44;8.20;99.90
11818;DHT22;5966;52.402;5.322;2022-11-18T07:41:14;8.20;99.90
11818;DHT22;5966;52.402;5.322;2022-11-18T07:43:43;8.20;99.90
11818;DHT22;5966;52.402;5.322;2022-11-18T07:46:12;8.20;99.90
11818;DHT22;5966;52.402;5.322;2022-11-18T07:48:42;8.20;99.90
11818;DHT22;5966;52.402;5.322;2022-11-18T07:51:11;8.20;99.90
11818;DHT22;5966;52.402;5.322;2022-11-18T07:53:41;8.30;99.90
11818;DHT22;5966;52.402;5.322;2022-11-18T07:56:09;8.20;99.90
11818;DHT22;5966;52.402;5.322;2022-11-18T07:58:38;8.30;99.90
11818;DHT22;5966;52.402;5.322;2022-11-18T08:01:07;8.30;99.90
11818;DHT22;5966;52.402;5.322;2022-11-18T08:03:35;8.30;99.90
11818;DHT22;5966;52.402;5.322;2022-11-18T08:06:05;8.30;99.90
11818;DHT22;5966;52.402;5.322;2022-11-18T08:08:33;8.30;99.90
11818;DHT22;5966;52.402;5.322;2022-11-18T08:11:04;8.30;99.90
11818;DHT22;5966;52.402;5.322;2022-11-18T08:13:33;8.30;99.90
11818;DHT22;5966;52.402;5.322;2022-11-18T08:16:01;8.30;99.90
11818;DHT22;5966;52.402;5.322;2022-11-18T08:18:31;8.30;99.90
11818;DHT22;5966;52.402;5.322;2022-11-18T08:21:01;8.30;99.90
11818;DHT22;5966;52.402;5.322;2022-11-18T08:23:29;8.40;99.90
11818;DHT22;5966;52.402;5.322;2022-11-18T08:26:07;8.30;99.90
11818;DHT22;5966;52.402;5.322;2022-11-18T08:28:35;8.40;99.90
11818;DHT22;5966;52.402;5.322;2022-11-18T08:31:08;8.40;99.90
11818;DHT22;5966;52.402;5.322;2022-11-18T08:33:36;8.40;99.90
11818;DHT22;5966;52.402;5.322;2022-11-18T08:36:06;8.40;99.90
11818;DHT22;5966;52.402;5.322;2022-11-18T08:38:34;8.50;99.90
11818;DHT22;5966;52.402;5.322;2022-11-18T08:41:03;8.50;99.90
11818;DHT22;5966;52.402;5.322;2022-11-18T08:43:34;8.50;99.90
11818;DHT22;5966;52.402;5.322;2022-11-18T08:46:02;8.60;99.90
11818;DHT22;5966;52.402;5.322;2022-11-18T08:48:30;8.60;99.90
11818;DHT22;5966;52.402;5.322;2022-11-18T08:50:58;8.60;99.90
11818;DHT22;5966;52.402;5.322;2022-11-18T08:53:27;8.70;99.90
11818;DHT22;5966;52.402;5.322;2022-11-18T08:55:55;8.70;99.90
11818;DHT22;5966;52.402;5.322;2022-11-18T08:58:23;8.70;99.90
11818;DHT22;5966;52.402;5.322;2022-11-18T09:00:53;8.80;99.90
11818;DHT22;5966;52.402;5.322;2022-11-18T09:03:21;8.80;99.90
11818;DHT22;5966;52.402;5.322;2022-11-18T09:05:49;8.80;99.90
11818;DHT22;5966;52.402;5.322;2022-11-18T09:08:17;8.80;99.90
11818;DHT22;5966;52.402;5.322;2022-11-18T09:10:45;8.80;99.90
11818;DHT22;5966;52.402;5.322;2022-11-18T09:13:13;8.90;99.90
11818;DHT22;5966;52.402;5.322;2022-11-18T09:16:03;8.90;99.90
11818;DHT22;5966;52.402;5.322;2022-11-18T09:18:31;8.90;99.90
11818;DHT22;5966;52.402;5.322;2022-11-18T09:21:01;8.90;99.90
11818;DHT22;5966;52.402;5.322;2022-11-18T09:23:30;8.90;99.90
11818;DHT22;5966;52.402;5.322;2022-11-18T09:25:59;9.00;99.90
11818;DHT22;5966;52.402;5.322;2022-11-18T09:28:28;9.00;99.90
11818;DHT22;5966;52.402;5.322;2022-11-18T09:30:56;9.00;99.90
11818;DHT22;5966;52.402;5.322;2022-11-18T09:33:26;9.10;99.90
11818;DHT22;5966;52.402;5.322;2022-11-18T09:35:56;9.10;99.90
11818;DHT22;5966;52.402;5.322;2022-11-18T09:38:24;9.10;99.90
11818;DHT22;5966;52.402;5.322;2022-11-18T09:41:00;9.10;99.90
11818;DHT22;5966;52.402;5.322;2022-11-18T09:43:37;9.10;99.90
11818;DHT22;5966;52.402;5.322;2022-11-18T09:46:15;9.10;99.90
11818;DHT22;5966;52.402;5.322;2022-11-18T09:48:49;9.10;99.90
11818;DHT22;5966;52.402;5.322;2022-11-18T09:51:38;9.20;99.90
11818;DHT22;5966;52.402;5.322;2022-11-18T09:54:10;9.20;99.90
11818;DHT22;5966;52.402;5.322;2022-11-18T09:56:39;9.20;99.90
11818;DHT22;5966;52.402;5.322;2022-11-18T09:59:10;9.20;99.90
11818;DHT22;5966;52.402;5.322;2022-11-18T10:01:40;9.30;99.90
11818;DHT22;5966;52.402;5.322;2022-11-18T10:04:14;9.30;99.90
11818;DHT22;5966;52.402;5.322;2022-11-18T10:06:44;9.40;99.90
11818;DHT22;5966;52.402;5.322;2022-11-18T10:09:25;9.40;99.90
11818;DHT22;5966;52.402;5.322;2022-11-18T10:12:07;9.40;99.90
11818;DHT22;5966;52.402;5.322;2022-11-18T10:14:51;9.50;99.90
11818;DHT22;5966;52.402;5.322;2022-11-18T10:17:32;9.50;99.90
11818;DHT22;5966;52.402;5.322;2022-11-18T10:20:17;9.50;99.90
11818;DHT22;5966;52.402;5.322;2022-11-18T10:22:50;9.50;99.90
11818;DHT22;5966;52.402;5.322;2022-11-18T10:25:19;9.50;99.90
11818;DHT22;5966;52.402;5.322;2022-11-18T10:27:49;9.50;99.90
11818;DHT22;5966;52.402;5.322;2022-11-18T10:30:19;9.50;99.90
11818;DHT22;5966;52.402;5.322;2022-11-18T10:32:58;9.50;99.90
11818;DHT22;5966;52.402;5.322;2022-11-18T10:35:32;9.40;99.90
11818;DHT22;5966;52.402;5.322;2022-11-18T10:38:03;9.50;99.90
11818;DHT22;5966;52.402;5.322;2022-11-18T10:40:37;9.50;99.90
11818;DHT22;5966;52.402;5.322;2022-11-18T10:43:08;9.50;99.90
11818;DHT22;5966;52.402;5.322;2022-11-18T10:45:36;9.50;99.90
11818;DHT22;5966;52.402;5.322;2022-11-18T10:48:09;9.50;99.90
11818;DHT22;5966;52.402;5.322;2022-11-18T10:50:46;9.50;99.90
11818;DHT22;5966;52.402;5.322;2022-11-18T10:53:29;9.60;99.90
11818;DHT22;5966;52.402;5.322;2022-11-18T10:55:59;9.60;99.90
11818;DHT22;5966;52.402;5.322;2022-11-18T10:58:29;9.60;99.90
11818;DHT22;5966;52.402;5.322;2022-11-18T11:01:04;9.70;99.90
11818;DHT22;5966;52.402;5.322;2022-11-18T11:03:34;9.70;99.90
11818;DHT22;5966;52.402;5.322;2022-11-18T11:06:28;9.80;99.90
11818;DHT22;5966;52.402;5.322;2022-11-18T11:09:06;9.80;99.90
11818;DHT22;5966;52.402;5.322;2022-11-18T11:11:38;9.80;99.90
11818;DHT22;5966;52.402;5.322;2022-11-18T11:14:21;9.90;99.90
11818;DHT22;5966;52.402;5.322;2022-11-18T11:16:58;9.90;99.90
11818;DHT22;5966;52.402;5.322;2022-11-18T11:19:35;9.90;99.90
11818;DHT22;5966;52.402;5.322;2022-11-18T11:22:10;10.00;99.90
11818;DHT22;5966;52.402;5.322;2022-11-18T11:24:38;10.00;99.90
11818;DHT22;5966;52.402;5.322;2022-11-18T11:27:23;10.00;99.90
11818;DHT22;5966;52.402;5.322;2022-11-18T11:30:17;10.10;99.90
11818;DHT22;5966;52.402;5.322;2022-11-18T11:33:18;10.20;99.90
11818;DHT22;5966;52.402;5.322;2022-11-18T11:36:02;10.30;99.90
11818;DHT22;5966;52.402;5.322;2022-11-18T11:38:45;10.30;99.90
11818;DHT22;5966;52.402;5.322;2022-11-18T11:41:21;10.30;99.90
11818;DHT22;5966;52.402;5.322;2022-11-18T11:46:59;10.20;99.90
11818;DHT22;5966;52.402;5.322;2022-11-18T11:49:52;10.20;99.90
11818;DHT22;5966;52.402;5.322;2022-11-18T11:52:32;10.20;99.90
11818;DHT22;5966;52.402;5.322;2022-11-18T11:55:13;10.20;99.90
11818;DHT22;5966;52.402;5.322;2022-11-18T11:58:00;10.20;99.90
11818;DHT22;5966;52.402;5.322;2022-11-18T12:00:34;10.20;99.90
11818;DHT22;5966;52.402;5.322;2022-11-18T12:03:18;10.20;99.90
11818;DHT22;5966;52.402;5.322;2022-11-18T12:05:47;10.30;99.90
11818;DHT22;5966;52.402;5.322;2022-11-18T12:08:19;10.30;99.90
11818;DHT22;5966;52.402;5.322;2022-11-18T12:10:51;10.30;99.90
11818;DHT22;5966;52.402;5.322;2022-11-18T12:13:26;10.30;99.90
11818;DHT22;5966;52.402;5.322;2022-11-18T12:16:04;10.30;99.90
11818;DHT22;5966;52.402;5.322;2022-11-18T12:18:39;10.30;99.90
11818;DHT22;5966;52.402;5.322;2022-11-18T12:21:09;10.30;99.90
11818;DHT22;5966;52.402;5.322;2022-11-18T12:24:28;10.30;99.90
11818;DHT22;5966;52.402;5.322;2022-11-18T12:27:02;10.40;99.90
11818;DHT22;5966;52.402;5.322;2022-11-18T12:29:36;10.40;99.90
11818;DHT22;5966;52.402;5.322;2022-11-18T12:32:24;10.40;99.90
11818;DHT22;5966;52.402;5.322;2022-11-18T12:34:58;10.40;99.90
11818;DHT22;5966;52.402;5.322;2022-11-18T12:37:56;10.40;99.90
11818;DHT22;5966;52.402;5.322;2022-11-18T12:40:33;10.40;99.90
11818;DHT22;5966;52.402;5.322;2022-11-18T12:43:04;10.40;99.90
11818;DHT22;5966;52.402;5.322;2022-11-18T12:45:53;10.40;99.90
11818;DHT22;5966;52.402;5.322;2022-11-18T12:48:32;10.40;99.90
11818;DHT22;5966;52.402;5.322;2022-11-18T12:51:06;10.40;99.90
11818;DHT22;5966;52.402;5.322;2022-11-18T12:53:39;10.40;99.90
11818;DHT22;5966;52.402;5.322;2022-11-18T12:56:20;10.40;99.90
11818;DHT22;5966;52.402;5.322;2022-11-18T12:58:51;10.40;99.90
11818;DHT22;5966;52.402;5.322;2022-11-18T13:01:21;10.40;99.90
11818;DHT22;5966;52.402;5.322;2022-11-18T13:03:49;10.40;99.90
11818;DHT22;5966;52.402;5.322;2022-11-18T13:06:22;10.50;99.90
11818;DHT22;5966;52.402;5.322;2022-11-18T13:08:53;10.50;99.90
11818;DHT22;5966;52.402;5.322;2022-11-18T13:11:24;10.40;99.90
11818;DHT22;5966;52.402;5.322;2022-11-18T13:14:15;10.50;99.90
11818;DHT22;5966;52.402;5.322;2022-11-18T13:17:01;10.50;99.90
11818;DHT22;5966;52.402;5.322;2022-11-18T13:19:54;10.40;99.90
11818;DHT22;5966;52.402;5.322;2022-11-18T13:22:23;10.50;99.90
11818;DHT22;5966;52.402;5.322;2022-11-18T13:25:22;10.50;99.90
11818;DHT22;5966;52.402;5.322;2022-11-18T13:27:54;10.40;99.90
11818;DHT22;5966;52.402;5.322;2022-11-18T13:30:26;10.40;99.90
11818;DHT22;5966;52.402;5.322;2022-11-18T13:32:57;10.40;99.90
11818;DHT22;5966;52.402;5.322;2022-11-18T13:35:26;10.40;99.90
11818;DHT22;5966;52.402;5.322;2022-11-18T13:37:56;10.40;99.90
11818;DHT22;5966;52.402;5.322;2022-11-18T13:40:26;10.40;99.90
11818;DHT22;5966;52.402;5.322;2022-11-18T13:42:55;10.40;99.90
11818;DHT22;5966;52.402;5.322;2022-11-18T13:45:26;10.40;99.90
11818;DHT22;5966;52.402;5.322;2022-11-18T13:47:58;10.40;99.90
11818;DHT22;5966;52.402;5.322;2022-11-18T13:50:30;10.50;99.90
11818;DHT22;5966;52.402;5.322;2022-11-18T13:53:08;10.50;99.90
11818;DHT22;5966;52.402;5.322;2022-11-18T13:55:44;10.50;99.90
11818;DHT22;5966;52.402;5.322;2022-11-18T13:58:30;10.60;99.90
11818;DHT22;5966;52.402;5.322;2022-11-18T14:01:18;10.60;99.90
11818;DHT22;5966;52.402;5.322;2022-11-18T14:03:49;10.60;99.90
11818;DHT22;5966;52.402;5.322;2022-11-18T14:06:24;10.50;99.90
11818;DHT22;5966;52.402;5.322;2022-11-18T14:09:04;10.50;99.90
11818;DHT22;5966;52.402;5.322;2022-11-18T14:11:36;10.40;99.90
11818;DHT22;5966;52.402;5.322;2022-11-18T14:14:04;10.40;99.90
11818;DHT22;5966;52.402;5.322;2022-11-18T14:16:35;10.40;99.90
11818;DHT22;5966;52.402;5.322;2022-11-18T14:19:04;10.30;99.90
11818;DHT22;5966;52.402;5.322;2022-11-18T14:21:33;10.30;99.90
11818;DHT22;5966;52.402;5.322;2022-11-18T14:24:02;10.20;99.90
11818;DHT22;5966;52.402;5.322;2022-11-18T14:26:33;10.20;99.90
11818;DHT22;5966;52.402;5.322;2022-11-18T14:29:02;10.20;99.90
11818;DHT22;5966;52.402;5.322;2022-11-18T14:31:44;10.20;99.90
11818;DHT22;5966;52.402;5.322;2022-11-18T14:34:17;10.20;99.90
11818;DHT22;5966;52.402;5.322;2022-11-18T14:36:48;10.20;99.90
11818;DHT22;5966;52.402;5.322;2022-11-18T14:39:22;10.10;99.90
11818;DHT22;5966;52.402;5.322;2022-11-18T14:41:53;10.10;99.90
11818;DHT22;5966;52.402;5.322;2022-11-18T14:44:24;10.10;99.90
11818;DHT22;5966;52.402;5.322;2022-11-18T14:46:56;10.20;99.90
11818;DHT22;5966;52.402;5.322;2022-11-18T14:49:26;10.20;99.90
11818;DHT22;5966;52.402;5.322;2022-11-18T14:51:57;10.20;99.90
11818;DHT22;5966;52.402;5.322;2022-11-18T14:54:28;10.20;99.90
11818;DHT22;5966;52.402;5.322;2022-11-18T14:56:59;10.20;99.90
11818;DHT22;5966;52.402;5.322;2022-11-18T14:59:28;10.20;99.90
11818;DHT22;5966;52.402;5.322;2022-11-18T15:01:57;10.20;99.90
11818;DHT22;5966;52.402;5.322;2022-11-18T15:04:25;10.20;99.90
11818;DHT22;5966;52.402;5.322;2022-11-18T15:06:53;10.20;99.90
11818;DHT22;5966;52.402;5.322;2022-11-18T15:09:21;10.20;99.90
11818;DHT22;5966;52.402;5.322;2022-11-18T15:11:50;10.20;99.90
11818;DHT22;5966;52.402;5.322;2022-11-18T15:14:18;10.10;99.90
11818;DHT22;5966;52.402;5.322;2022-11-18T15:16:46;10.10;99.90
11818;DHT22;5966;52.402;5.322;2022-11-18T15:19:15;10.10;99.90
11818;DHT22;5966;52.402;5.322;2022-11-18T15:21:43;10.10;99.90
11818;DHT22;5966;52.402;5.322;2022-11-18T15:24:11;10.10;99.90
11818;DHT22;5966;52.402;5.322;2022-11-18T15:26:41;10.10;99.90
11818;DHT22;5966;52.402;5.322;2022-11-18T15:29:15;10.00;99.90
11818;DHT22;5966;52.402;5.322;2022-11-18T15:31:43;10.00;99.90
11818;DHT22;5966;52.402;5.322;2022-11-18T15:34:11;10.00;99.90
11818;DHT22;5966;52.402;5.322;2022-11-18T15:36:41;9.90;99.90
11818;DHT22;5966;52.402;5.322;2022-11-18T15:39:09;9.90;99.90
11818;DHT22;5966;52.402;5.322;2022-11-18T15:41:39;9.90;99.90
11818;DHT22;5966;52.402;5.322;2022-11-18T15:44:08;9.90;99.90
11818;DHT22;5966;52.402;5.322;2022-11-18T15:46:37;9.90;99.90
11818;DHT22;5966;52.402;5.322;2022-11-18T15:49:05;9.80;99.90
11818;DHT22;5966;52.402;5.322;2022-11-18T15:51:35;9.80;99.90
11818;DHT22;5966;52.402;5.322;2022-11-18T15:54:05;9.80;99.90
11818;DHT22;5966;52.402;5.322;2022-11-18T15:56:33;9.80;99.90
11818;DHT22;5966;52.402;5.322;2022-11-18T15:59:02;9.80;99.90
11818;DHT22;5966;52.402;5.322;2022-11-18T16:01:31;9.80;99.90
11818;DHT22;5966;52.402;5.322;2022-11-18T16:04:00;9.80;99.90
11818;DHT22;5966;52.402;5.322;2022-11-18T16:06:28;9.80;99.90
11818;DHT22;5966;52.402;5.322;2022-11-18T16:08:56;9.80;99.90
11818;DHT22;5966;52.402;5.322;2022-11-18T16:11:28;9.80;99.90
11818;DHT22;5966;52.402;5.322;2022-11-18T16:14:15;9.80;99.90
11818;DHT22;5966;52.402;5.322;2022-11-18T16:16:45;9.80;99.90
11818;DHT22;5966;52.402;5.322;2022-11-18T16:19:15;9.80;99.90
11818;DHT22;5966;52.402;5.322;2022-11-18T16:21:45;9.80;99.90
11818;DHT22;5966;52.402;5.322;2022-11-18T16:24:15;9.80;99.90
11818;DHT22;5966;52.402;5.322;2022-11-18T16:26:46;9.70;99.90
11818;DHT22;5966;52.402;5.322;2022-11-18T16:29:14;9.70;99.90
11818;DHT22;5966;52.402;5.322;2022-11-18T16:31:44;9.70;99.90
11818;DHT22;5966;52.402;5.322;2022-11-18T16:34:17;9.60;99.90
11818;DHT22;5966;52.402;5.322;2022-11-18T16:36:47;9.60;99.90